ADDS METAR Data INFO
IDs: Format: Raw Decoded Include TAF

Data at: 0652 UTC 18 Feb 2018

KCRP 180612Z 12008KT 8SM BKN008 BKN012 BKN160 21/21 A3007 RMK AO2 T02060206 $
KCRP 180551Z 13009KT 7SM FEW009 SCT015 BKN160 21/21 A3007 RMK AO2 SLP183 T02060206 10239 20206 402940194 50003 $
KCRP 180451Z 14012KT 10SM FEW009 SCT160 21/21 A3008 RMK AO2 SLP183 T02060206 $
KCRP 180351Z 15011KT 10SM FEW070 21/21 A3008 RMK AO2 SLP183 T02110206 $
KCRP 180251Z 15012KT 10SM FEW011 SCT070 SCT250 21/21 A3006 RMK AO2 SLP179 T02110206 51014 $
KCRP 180151Z 14013KT 10SM FEW012 FEW065 BKN250 22/21 A3005 RMK AO2 SLP175 T02170206 $
KCRP 180051Z 14015KT 10SM FEW012 SCT065 BKN250 22/21 A3004 RMK AO2 SLP170 T02220206 $
KCRP 172351Z 15016KT 10SM FEW012 FEW050 BKN250 24/21 A3002 RMK AO2 PK WND 16027/2321 SLP165 T02390206 10294 20239 53004 $
KCRP 172251Z 15023KT 10SM FEW035 BKN250 26/20 A3001 RMK AO2 PK WND 16027/2211 SLP159 T02560200 $
KCRP 172151Z 15022KT 10SM FEW045 FEW055 SCT200 BKN250 27/19 A3001 RMK AO2 PK WND 16026/2151 SLP159 T02720194 $
KCRP 172051Z 15018KT 10SM FEW042 SCT050 SCT200 BKN250 28/19 A3001 RMK AO2 SLP161 T02830194 56020 $
KCRP 171951Z 14015KT 10SM FEW035 SCT042 SCT050 BKN250 28/20 A3003 RMK AO2 SLP166 T02830200 $
KCRP 171851Z 20013G19KT 10SM FEW034 BKN039 BKN250 29/18 A3004 RMK AO2 SLP172 T02890183 $
KCRP 171802Z 19013KT 10SM FEW021 SCT030 BKN250 28/19 A3006 RMK AO2 T02830189 $
KCRP 171751Z 18015G19KT 10SM FEW021 BKN028 BKN250 28/19 A3007 RMK AO2 SLP181 T02830189 10283 20194 50001 $
KCRP 171651Z 20012KT 10SM BKN023 BKN028 BKN250 25/20 A3009 RMK AO2 SLP187 T02500200 $
KCRP 171551Z 20013KT 9SM FEW012 BKN015 BKN021 BKN250 23/20 A3008 RMK AO2 SLP185 T02330200 $
KCRP 171537Z 21010KT 8SM SCT012 BKN015 OVC021 23/21 A3009 RMK AO2 T02280206 $
KCRP 171456Z COR 20006KT 5SM BR SCT009 OVC013 22/21 A3007 RMK AO2 PRESRR T02170206 $
KCRP 171451Z 18005KT 5SM BR BKN009 OVC013 22/21 A3007 RMK AO2 PRESRR SLP180 T02170206 51017 $
KCRP 171448Z 18007KT 6SM BR SCT008 OVC013 22/21 A3006 RMK AO2 PRESRR $
KCRP 171351Z 16008KT 6SM BR SCT012 BKN250 21/20 A3002 RMK AO2 SLP165 T02060200 $
KCRP 171347Z 17008KT 5SM BR FEW008 SCT012 BKN250 20/20 A3002 RMK AO2 $
KCRP 171251Z 17009KT 7SM FEW007 OVC014 20/20 A3002 RMK AO2 SLP163 T02000200 $
KCRP 171222Z 17009KT 7SM FEW007 BKN014 BKN250 20/20 A3001 RMK AO2 T02000200 $
KCRP 171211Z 17010KT 8SM FEW007 SCT018 SCT250 20/19 A3001 RMK AO2 T02000194 $
KCRP 171200Z 17009KT 8SM SCT008 BKN018 21/20 A3002 RMK AO2 T02060200 $
KCRP 171151Z 18011KT 8SM BKN008 OVC016 21/20 A3001 RMK AO2 SLP162 60000 T02060200 10211 20206 55003 $
KCRP 171051Z 17008KT 8SM BKN007 OVC013 21/20 A3001 RMK AO2 SLP159 T02060200 $
KCRP 170951Z 17010KT 8SM BKN007 BKN012 OVC023 21/21 A3000 RMK AO2 SLP159 T02060206 $
KCRP 170919Z 16012KT 7SM SCT004 OVC024 21/21 A3001 RMK AO2 T02060206 $
KCRP 170851Z 15012KT 7SM BKN004 OVC024 21/21 A3002 RMK AO2 SLP165 60000 T02060206 58015 $
KCRP 170838Z 15011KT 7SM BKN004 BKN016 OVC024 21/21 A3003 RMK AO2 T02110211 $
KCRP 170804Z 15010KT 7SM BKN005 BKN013 OVC023 21/21 A3004 RMK AO2 T02110211 $
KCRP 170751Z 15009KT 7SM SCT005 BKN014 OVC023 21/21 A3005 RMK AO2 DZB06E12RAB12E23 SLP174 P0000 T02110206 $
KCRP 170747Z 15008KT 7SM SCT005 BKN014 OVC024 21/21 A3005 RMK AO2 DZB06E12RAB12E23 P0000 $
KCRP 170651Z 15009KT 6SM BR SCT003 BKN007 BKN029 21/21 A3006 RMK AO2 SLP179 T02060206 $
KCRP 170636Z 15009KT 3SM BR OVC002 21/21 A3006 RMK AO2 VIS NW-N 6 E-SE 2 T02060206 $
KCRP 170617Z 16010KT 1 1/2SM BR OVC002 21/21 A3007 RMK AO2 VIS NE-E 1 W-NW 3 T02060206 $
KCRP 170610Z 16009KT 2 1/2SM BR OVC003 21/21 A3007 RMK AO2 VIS W-NW 4 T02060206 $
KCRP 170551Z 16011KT 6SM BR OVC003 21/21 A3007 RMK AO2 SLP180 T02110211 10217 20200 402780178 53004 $
KCRP 170451Z 15013KT 7SM OVC004 21/21 A3006 RMK AO2 SLP179 T02110211 $
KCRP 170351Z 15012KT 9SM OVC005 21/21 A3005 RMK AO2 SLP175 T02110211 $
KCRP 170251Z 13012KT 7SM FEW003 OVC006 22/21 A3005 RMK AO2 SLP176 T02170211 53009 $
KCRP 170151Z COR 12009KT 7SM FEW003 OVC006 21/21 A3005 RMK AO2 SLP173 T02110206 $
KCRP 170051Z 10011KT 6SM BR BKN006 OVC010 20/20 A3003 RMK AO2 SLP169 VIS N 2 1/2 T02000200 $
KCRP 170012Z 10012KT 9SM BKN007 OVC012 21/20 A3003 RMK AO2 T02110200 $
KCRP 162351Z 10012KT 10SM BKN016 BKN023 OVC250 22/20 A3003 RMK AO2 SLP167 T02170200 10278 20217 55000 $
KCRP 162325Z 11011KT 10SM BKN017 BKN023 BKN250 24/20 A3003 RMK AO2 T02390200 $
KCRP 162251Z 13014KT 10SM FEW017 FEW023 BKN250 25/20 A3003 RMK AO2 SLP167 T02500200 $
KCRP 162151Z 14017KT 10SM FEW020 FEW032 BKN250 27/20 A3002 RMK AO2 SLP165 T02670200 $
KCRP 162051Z 13016KT 10SM SCT025 BKN034 BKN041 BKN250 27/20 A3003 RMK AO2 SLP167 T02720200 56025 $
KCRP 161951Z 14017KT 10SM FEW025 SCT032 BKN038 BKN250 27/20 A3004 RMK AO2 SLP171 T02720200 $